createdAt,value
2024-04-30T00:00:20.464Z,12.90
2024-04-30T00:02:55.392Z,12.90
2024-04-30T00:05:23.238Z,13.00
2024-04-30T00:11:05.682Z,13.00
2024-04-30T00:13:33.730Z,13.00
2024-04-30T00:16:06.203Z,12.90
2024-04-30T00:18:33.739Z,13.00
2024-04-30T00:21:05.075Z,13.00
2024-04-30T00:23:32.703Z,13.00
2024-04-30T00:26:21.374Z,13.00
2024-04-30T00:28:48.972Z,13.10
2024-04-30T00:31:20.103Z,13.00
2024-04-30T00:33:48.369Z,13.10
2024-04-30T00:36:19.730Z,13.00
2024-04-30T00:38:47.872Z,13.00
2024-04-30T00:41:22.173Z,12.90
2024-04-30T00:43:49.714Z,12.90
2024-04-30T00:46:20.229Z,12.80
2024-04-30T00:48:48.490Z,12.80
2024-04-30T00:51:19.993Z,12.80
2024-04-30T00:53:47.626Z,12.80
2024-04-30T00:56:21.657Z,12.70
2024-04-30T00:58:49.227Z,12.70
2024-04-30T01:01:22.951Z,12.70
2024-04-30T01:03:50.674Z,12.60
2024-04-30T01:06:21.442Z,12.60
2024-04-30T01:08:49.336Z,12.60
2024-04-30T01:11:40.459Z,12.60
2024-04-30T01:14:11.224Z,12.60
2024-04-30T01:16:38.834Z,12.50
2024-04-30T01:19:09.272Z,12.50
2024-04-30T01:21:36.897Z,12.40
2024-04-30T01:24:11.869Z,12.40
2024-04-30T01:26:39.569Z,12.50
2024-04-30T01:29:10.107Z,12.60
2024-04-30T01:31:38.061Z,12.50
2024-04-30T01:34:08.924Z,12.60
2024-04-30T01:36:36.458Z,12.60
2024-04-30T01:39:10.959Z,12.60
2024-04-30T01:41:41.232Z,12.60
2024-04-30T01:44:13.223Z,12.50
2024-04-30T01:46:40.894Z,12.60
2024-04-30T01:49:12.192Z,12.60
2024-04-30T01:51:39.736Z,12.60
2024-04-30T01:54:13.966Z,12.50
2024-04-30T01:56:42.850Z,12.50
2024-04-30T01:59:13.570Z,12.40
2024-04-30T02:01:42.801Z,12.40
2024-04-30T02:06:55.180Z,12.30
2024-04-30T02:09:29.928Z,12.20
2024-04-30T02:11:57.332Z,12.20
2024-04-30T02:14:27.782Z,12.20
2024-04-30T02:16:55.528Z,12.20
2024-04-30T02:19:26.080Z,12.20
2024-04-30T02:21:53.661Z,12.10
2024-04-30T02:24:28.109Z,12.10
2024-04-30T02:26:55.698Z,12.10
2024-04-30T02:29:26.385Z,12.10
2024-04-30T02:32:18.969Z,12.10
2024-04-30T02:34:49.400Z,12.10
2024-04-30T02:37:20.553Z,12.00
2024-04-30T02:39:56.719Z,11.90
2024-04-30T02:42:27.313Z,11.90
2024-04-30T02:44:56.678Z,11.80
2024-04-30T02:47:27.192Z,11.70
2024-04-30T02:49:54.880Z,11.70
2024-04-30T02:52:26.035Z,11.60
2024-04-30T02:55:00.581Z,11.60
2024-04-30T02:57:28.256Z,11.50
2024-04-30T02:59:58.928Z,11.40
2024-04-30T03:02:26.501Z,11.30
2024-04-30T03:04:56.921Z,11.30
2024-04-30T03:07:26.336Z,11.20
2024-04-30T03:09:59.737Z,11.20
2024-04-30T03:12:27.704Z,11.10
2024-04-30T03:15:00.535Z,11.00
2024-04-30T03:17:28.377Z,10.90
2024-04-30T03:19:58.717Z,10.90
2024-04-30T03:22:26.348Z,10.80
2024-04-30T03:24:59.432Z,10.80
2024-04-30T03:27:27.158Z,10.70
2024-04-30T03:29:57.522Z,10.60
2024-04-30T03:32:25.470Z,10.50
2024-04-30T03:34:56.533Z,10.50
2024-04-30T03:37:30.729Z,10.50
2024-04-30T03:40:04.025Z,10.40
2024-04-30T03:42:44.438Z,10.30
2024-04-30T03:45:14.931Z,10.30
2024-04-30T03:47:46.199Z,10.30
2024-04-30T03:50:17.195Z,10.20
2024-04-30T03:52:46.377Z,10.10
2024-04-30T03:55:21.645Z,10.00
2024-04-30T03:57:49.553Z,10.00
2024-04-30T04:00:19.920Z,9.90
2024-04-30T04:02:47.606Z,9.90
2024-04-30T04:05:18.579Z,9.80
2024-04-30T04:07:46.183Z,9.70
2024-04-30T04:10:19.428Z,9.70
2024-04-30T04:13:06.041Z,9.70
2024-04-30T04:15:36.273Z,9.60
2024-04-30T04:18:06.870Z,9.60
2024-04-30T04:20:34.431Z,9.60
2024-04-30T04:23:04.791Z,9.50
2024-04-30T04:28:40.108Z,9.50
2024-04-30T04:31:08.565Z,9.50
2024-04-30T04:33:40.007Z,9.50
2024-04-30T04:36:14.483Z,9.50
2024-04-30T04:38:47.087Z,9.60
2024-04-30T04:41:14.610Z,9.60
2024-04-30T04:43:47.917Z,9.60
2024-04-30T04:46:15.625Z,9.50
2024-04-30T04:48:50.298Z,9.60
2024-04-30T04:51:17.927Z,9.50
2024-04-30T04:53:49.200Z,9.50
2024-04-30T04:56:16.861Z,9.50
2024-04-30T04:58:50.404Z,9.40
2024-04-30T05:01:19.093Z,9.40
2024-04-30T05:03:50.005Z,9.30
2024-04-30T05:06:19.426Z,9.40
2024-04-30T05:08:50.383Z,9.40
2024-04-30T05:11:18.209Z,9.40
2024-04-30T05:14:02.467Z,9.50
2024-04-30T05:16:30.366Z,9.60
2024-04-30T05:19:08.532Z,9.80
2024-04-30T05:21:36.123Z,10.10
2024-04-30T05:24:06.460Z,10.40
2024-04-30T05:26:34.108Z,10.90
2024-04-30T05:29:07.323Z,11.20
2024-04-30T05:31:38.710Z,11.60
2024-04-30T05:36:50.605Z,12.30
2024-04-30T05:39:21.785Z,12.60
2024-04-30T05:41:49.385Z,12.80
2024-04-30T05:44:23.346Z,13.20
2024-04-30T05:46:51.820Z,13.70
2024-04-30T05:49:24.886Z,14.20
2024-04-30T05:51:52.579Z,14.60
2024-04-30T05:54:24.202Z,15.00
2024-04-30T05:57:17.332Z,15.20
2024-04-30T06:00:38.890Z,15.50
2024-04-30T06:29:12.044Z,18.60
2024-04-30T06:36:08.025Z,19.30
2024-04-30T06:38:38.689Z,19.50
2024-04-30T06:41:06.274Z,19.50
2024-04-30T06:43:38.664Z,19.60
2024-04-30T06:46:09.025Z,19.90
2024-04-30T06:48:50.517Z,20.10
2024-04-30T06:51:19.001Z,20.40
2024-04-30T06:53:49.576Z,20.60
2024-04-30T06:56:28.144Z,20.70
2024-04-30T06:58:58.945Z,21.00
2024-04-30T07:01:35.541Z,21.20
2024-04-30T07:04:06.282Z,21.30
2024-04-30T07:06:36.854Z,21.50
2024-04-30T07:09:04.629Z,21.80
2024-04-30T07:11:35.093Z,21.60
2024-04-30T07:14:03.481Z,21.20
2024-04-30T07:16:51.765Z,21.70
2024-04-30T07:19:24.596Z,22.10
2024-04-30T07:21:58.673Z,22.50
2024-04-30T07:24:26.365Z,22.60
2024-04-30T07:27:24.890Z,22.80
2024-04-30T07:29:53.112Z,22.80
2024-04-30T07:32:27.883Z,22.80
2024-04-30T07:34:57.696Z,22.70
2024-04-30T07:40:21.464Z,23.00
2024-04-30T07:42:52.338Z,23.30
2024-04-30T07:45:21.047Z,23.60
2024-04-30T07:49:16.528Z,24.00
2024-04-30T07:53:43.908Z,23.90
2024-04-30T07:56:11.490Z,23.90
2024-04-30T07:58:41.999Z,24.10
2024-04-30T08:01:29.318Z,24.00
2024-04-30T08:07:14.215Z,24.20
2024-04-30T08:09:42.090Z,24.30
2024-04-30T08:12:13.788Z,24.30
2024-04-30T08:14:44.330Z,24.70
2024-04-30T08:17:13.132Z,25.00
2024-04-30T08:19:46.959Z,25.30
2024-04-30T08:22:32.612Z,25.60
2024-04-30T08:25:10.922Z,25.90
2024-04-30T08:28:02.548Z,25.80
2024-04-30T08:30:32.910Z,25.80
2024-04-30T08:33:02.543Z,26.10
2024-04-30T08:35:35.745Z,26.30
2024-04-30T08:38:07.061Z,26.20
2024-04-30T08:40:38.155Z,26.50
2024-04-30T08:43:06.159Z,26.60
2024-04-30T08:45:38.338Z,26.60
2024-04-30T08:48:11.229Z,26.60
2024-04-30T08:50:46.315Z,26.80
2024-04-30T08:53:14.873Z,27.00
2024-04-30T08:55:47.707Z,27.10
2024-04-30T08:58:15.553Z,26.90
2024-04-30T09:00:45.885Z,27.00
2024-04-30T09:03:14.152Z,27.40
2024-04-30T09:05:49.474Z,27.70
2024-04-30T09:08:20.055Z,28.10
2024-04-30T09:10:48.154Z,28.50
2024-04-30T09:13:19.894Z,28.60
2024-04-30T09:15:58.930Z,29.00
2024-04-30T09:18:29.356Z,29.00
2024-04-30T09:21:11.988Z,29.20
2024-04-30T09:23:47.729Z,29.40
2024-04-30T09:26:15.795Z,29.30
2024-04-30T09:28:46.126Z,29.10
2024-04-30T09:31:13.906Z,29.00
2024-04-30T09:33:44.473Z,29.00
2024-04-30T09:36:17.273Z,28.90
2024-04-30T09:38:48.320Z,29.10
2024-04-30T09:41:18.033Z,29.10
2024-04-30T09:43:48.938Z,28.40
2024-04-30T09:46:20.026Z,28.20
2024-04-30T09:48:50.927Z,28.50
2024-04-30T09:51:28.824Z,28.60
2024-04-30T09:54:01.392Z,28.30
2024-04-30T09:56:37.810Z,28.10
2024-04-30T09:59:09.266Z,27.30
2024-04-30T10:01:37.663Z,26.90
2024-04-30T10:04:09.853Z,26.50
2024-04-30T10:06:42.851Z,26.50
2024-04-30T10:09:13.340Z,26.60
2024-04-30T10:11:47.207Z,26.50
2024-04-30T10:14:18.273Z,26.50
2024-04-30T10:16:56.928Z,26.50
2024-04-30T10:19:27.531Z,26.50
2024-04-30T10:22:14.299Z,26.50
2024-04-30T10:24:44.726Z,26.70
2024-04-30T10:27:22.970Z,26.80
2024-04-30T10:29:50.912Z,26.90
2024-04-30T10:32:21.667Z,26.90
2024-04-30T10:35:00.685Z,26.80
2024-04-30T10:37:33.954Z,26.90
2024-04-30T10:40:13.030Z,26.80
2024-04-30T10:42:40.826Z,26.70
2024-04-30T10:45:11.727Z,26.70
2024-04-30T10:47:39.250Z,26.90
2024-04-30T10:50:18.406Z,27.00
2024-04-30T10:52:52.198Z,27.00
2024-04-30T10:55:22.905Z,26.70
2024-04-30T10:57:50.599Z,26.50
2024-04-30T11:00:22.904Z,26.50
2024-04-30T11:03:04.000Z,26.40
2024-04-30T11:05:34.575Z,26.60
2024-04-30T11:08:06.627Z,26.70
2024-04-30T11:10:37.299Z,26.80
2024-04-30T11:13:11.094Z,26.90
2024-04-30T11:15:38.736Z,26.70
2024-04-30T11:18:09.441Z,26.70
2024-04-30T11:20:37.112Z,26.60
2024-04-30T11:23:10.903Z,26.50
2024-04-30T11:25:40.050Z,26.60
2024-04-30T11:28:10.477Z,26.70
2024-04-30T11:30:42.597Z,26.80
2024-04-30T11:33:13.089Z,26.90
2024-04-30T11:35:44.113Z,27.00
2024-04-30T11:38:25.310Z,26.80
2024-04-30T11:40:54.347Z,26.80
2024-04-30T11:43:27.625Z,26.80
2024-04-30T11:46:00.834Z,26.70
2024-04-30T11:48:34.859Z,26.70
2024-04-30T11:51:02.447Z,26.60
2024-04-30T11:56:26.769Z,26.60
2024-04-30T11:58:58.326Z,26.60
2024-04-30T12:01:28.745Z,26.60
2024-04-30T12:03:56.356Z,26.60
2024-04-30T12:06:44.690Z,26.50
2024-04-30T12:09:14.104Z,26.60
2024-04-30T12:11:55.013Z,26.50
2024-04-30T12:14:29.945Z,26.60
2024-04-30T12:17:05.131Z,26.80
2024-04-30T12:19:32.914Z,26.90
2024-04-30T12:22:04.776Z,27.00
2024-04-30T12:24:32.596Z,27.00
2024-04-30T12:27:07.614Z,27.10
2024-04-30T12:29:36.329Z,27.10
2024-04-30T12:32:11.488Z,27.00
2024-04-30T12:34:42.704Z,27.00
2024-04-30T12:37:23.152Z,27.10
2024-04-30T12:39:54.713Z,27.00
2024-04-30T12:42:30.745Z,26.90
2024-04-30T12:44:58.299Z,26.90
2024-04-30T12:47:28.580Z,27.00
2024-04-30T12:49:56.010Z,26.90
2024-04-30T12:52:26.195Z,27.10
2024-04-30T12:54:53.750Z,27.00
2024-04-30T12:57:26.648Z,26.90
2024-04-30T12:59:54.062Z,26.90
2024-04-30T13:02:25.625Z,27.00
2024-04-30T13:04:53.174Z,27.00
2024-04-30T13:07:24.258Z,27.10
2024-04-30T13:09:51.669Z,27.00
2024-04-30T13:12:21.954Z,27.00
2024-04-30T13:14:52.059Z,27.00
2024-04-30T13:17:22.253Z,26.90
2024-04-30T13:19:49.861Z,26.80
2024-04-30T13:22:19.958Z,27.00
2024-04-30T13:24:47.448Z,26.90
2024-04-30T13:27:17.951Z,27.00
2024-04-30T13:29:45.410Z,27.10
2024-04-30T13:32:18.339Z,27.10
2024-04-30T13:34:45.857Z,27.10
2024-04-30T13:37:16.038Z,27.10
2024-04-30T13:39:43.438Z,27.20
2024-04-30T13:42:13.490Z,27.20
2024-04-30T13:44:41.003Z,27.10
2024-04-30T13:47:11.218Z,27.20
2024-04-30T13:49:44.287Z,27.30
2024-04-30T13:52:11.988Z,27.20
2024-04-30T13:54:42.722Z,27.40
2024-04-30T13:57:10.067Z,27.50
2024-04-30T13:59:40.666Z,28.00
2024-04-30T14:02:10.152Z,28.30
2024-04-30T14:04:40.393Z,28.30
2024-04-30T14:07:10.777Z,28.20
2024-04-30T14:09:40.782Z,28.20
2024-04-30T14:12:08.400Z,28.40
2024-04-30T14:14:39.195Z,28.60
2024-04-30T14:17:06.769Z,28.50
2024-04-30T14:19:36.988Z,28.30
2024-04-30T14:22:04.777Z,28.10
2024-04-30T14:24:37.718Z,27.70
2024-04-30T14:27:05.503Z,27.30
2024-04-30T14:29:35.536Z,27.30
2024-04-30T14:32:06.080Z,27.30
2024-04-30T14:34:33.561Z,27.30
2024-04-30T14:37:03.760Z,27.40
2024-04-30T14:39:33.966Z,27.30
2024-04-30T14:42:04.214Z,27.40
2024-04-30T14:44:31.563Z,27.30
2024-04-30T14:47:01.566Z,27.20
2024-04-30T14:49:29.158Z,27.10
2024-04-30T14:51:59.578Z,27.00
2024-04-30T14:54:26.951Z,26.90
2024-04-30T14:56:59.814Z,26.80
2024-04-30T14:59:27.372Z,26.80
2024-04-30T15:01:57.817Z,27.10
2024-04-30T15:04:29.222Z,27.20
2024-04-30T15:06:56.882Z,27.40
2024-04-30T15:09:28.356Z,27.60
2024-04-30T15:11:59.913Z,27.60
2024-04-30T15:14:30.912Z,27.60
2024-04-30T15:16:59.427Z,27.50
2024-04-30T15:19:29.687Z,27.50
2024-04-30T15:21:57.297Z,27.50
2024-04-30T15:24:27.454Z,27.70
2024-04-30T15:26:54.768Z,27.60
2024-04-30T15:29:27.410Z,27.60
2024-04-30T15:31:54.914Z,27.50
2024-04-30T15:34:25.115Z,27.40
2024-04-30T15:36:52.724Z,27.40
2024-04-30T15:39:22.871Z,27.30
2024-04-30T15:41:50.468Z,27.10
2024-04-30T15:44:20.838Z,27.20
2024-04-30T15:46:51.698Z,27.30
2024-04-30T15:49:22.463Z,27.10
2024-04-30T15:51:50.135Z,27.00
2024-04-30T15:54:23.167Z,27.00
2024-04-30T15:56:57.922Z,26.80
2024-04-30T15:59:31.873Z,26.70
2024-04-30T16:02:02.152Z,26.60
2024-04-30T16:04:32.559Z,26.60
2024-04-30T16:07:00.306Z,26.60
2024-04-30T16:09:33.285Z,26.60
2024-04-30T16:12:00.821Z,26.40
2024-04-30T16:14:31.191Z,26.30
2024-04-30T16:17:01.792Z,26.10
2024-04-30T16:19:32.186Z,26.00
2024-04-30T16:22:00.812Z,25.90
2024-04-30T16:24:31.079Z,25.80
2024-04-30T16:26:58.607Z,25.80
2024-04-30T16:29:28.690Z,25.60
2024-04-30T16:31:59.114Z,25.60
2024-04-30T16:34:31.048Z,25.50
2024-04-30T16:37:01.887Z,25.30
2024-04-30T16:39:29.538Z,25.20
2024-04-30T16:41:59.884Z,25.10
2024-04-30T16:44:36.909Z,25.00
2024-04-30T16:47:14.717Z,24.90
2024-04-30T16:49:44.995Z,24.80
2024-04-30T16:52:15.401Z,24.70
2024-04-30T16:54:45.731Z,24.60
2024-04-30T16:57:16.186Z,24.50
2024-04-30T16:59:43.868Z,24.30
2024-04-30T17:02:14.200Z,24.10
2024-04-30T17:04:44.645Z,24.00
2024-04-30T17:07:15.111Z,23.80
2024-04-30T17:09:43.012Z,23.70
2024-04-30T17:12:13.568Z,23.60
2024-04-30T17:14:41.158Z,23.50
2024-04-30T17:17:11.901Z,23.50
2024-04-30T17:19:39.928Z,23.40
2024-04-30T17:22:12.964Z,23.30
2024-04-30T17:24:44.396Z,23.10
2024-04-30T17:27:12.056Z,23.00
2024-04-30T17:29:44.746Z,22.80
2024-04-30T17:32:12.400Z,22.60
2024-04-30T17:34:42.848Z,22.50
2024-04-30T17:37:13.025Z,22.40
2024-04-30T17:39:43.349Z,22.30
2024-04-30T17:42:11.289Z,22.10
2024-04-30T17:44:41.629Z,21.90
2024-04-30T17:47:09.223Z,21.80
2024-04-30T17:49:39.680Z,21.60
2024-04-30T17:52:07.670Z,21.40
2024-04-30T17:54:40.745Z,21.20
2024-04-30T17:57:11.944Z,21.10
2024-04-30T17:59:39.441Z,20.90
2024-04-30T18:02:12.512Z,20.80
2024-04-30T18:04:42.049Z,20.60
2024-04-30T18:07:12.373Z,20.50
2024-04-30T18:09:44.322Z,20.30
2024-04-30T18:12:14.705Z,20.10
2024-04-30T18:14:45.609Z,20.00
2024-04-30T18:17:13.315Z,19.80
2024-04-30T18:19:47.410Z,19.70
2024-04-30T18:23:25.551Z,19.50
2024-04-30T18:37:12.486Z,18.70
2024-04-30T18:43:35.944Z,18.40
2024-04-30T18:46:17.955Z,18.20
2024-04-30T18:48:56.617Z,18.20
2024-04-30T18:51:33.348Z,18.10
2024-04-30T18:54:11.535Z,17.90
2024-04-30T19:00:04.291Z,17.70
2024-04-30T19:02:35.176Z,17.50
2024-04-30T19:05:07.869Z,17.40
2024-04-30T20:09:07.057Z,15.30
2024-04-30T20:20:51.398Z,14.90
2024-04-30T20:23:32.555Z,14.80
2024-04-30T20:42:07.777Z,14.60
2024-04-30T21:22:58.019Z,13.90
2024-04-30T21:37:07.109Z,13.60
2024-04-30T21:40:07.198Z,13.50
2024-04-30T21:43:02.123Z,13.40
2024-04-30T21:46:24.980Z,13.30
2024-04-30T21:52:47.760Z,13.20
2024-04-30T21:56:22.453Z,13.10
2024-04-30T22:00:26.310Z,13.10
2024-04-30T22:06:35.180Z,13.10
2024-04-30T22:12:39.494Z,13.10
2024-04-30T22:13:10.446Z,13.00
2024-04-30T22:15:59.096Z,12.90
2024-04-30T22:19:39.313Z,12.90
2024-04-30T22:22:51.131Z,12.80
2024-04-30T22:26:12.613Z,12.80
2024-04-30T22:32:57.065Z,12.60
2024-04-30T22:35:51.561Z,12.60
2024-04-30T22:39:19.813Z,12.60
2024-04-30T22:42:45.460Z,12.60
2024-04-30T22:45:52.070Z,12.70
2024-04-30T22:48:35.958Z,12.70
2024-04-30T22:55:30.521Z,12.80
2024-04-30T22:58:06.729Z,12.70
2024-04-30T23:00:43.650Z,12.80
2024-04-30T23:03:11.775Z,12.70
2024-04-30T23:05:46.979Z,12.70
2024-04-30T23:08:19.231Z,12.70
2024-04-30T23:10:54.091Z,12.80
2024-04-30T23:13:21.906Z,12.80
2024-04-30T23:15:59.846Z,12.90
2024-04-30T23:18:31.139Z,12.90
2024-04-30T23:21:04.295Z,12.90
2024-04-30T23:23:35.350Z,13.00
2024-04-30T23:29:05.696Z,13.10
2024-04-30T23:34:32.443Z,13.10
2024-04-30T23:37:18.154Z,13.10
2024-04-30T23:39:53.442Z,13.10
2024-04-30T23:42:26.728Z,13.10
2024-04-30T23:45:03.021Z,13.10
2024-04-30T23:47:38.815Z,13.10
2024-04-30T23:50:37.575Z,13.10
2024-04-30T23:53:10.582Z,13.10
2024-04-30T23:55:42.304Z,13.10
2024-04-30T23:58:21.756Z,13.00
